sensor_id;sensor_type;location;lat;lon;timestamp;temperature;humidity
52919;DHT22;38793;52.690;6.812;2023-03-01T00:00:13;0.00;99.90
52919;DHT22;38793;52.690;6.812;2023-03-01T00:02:38;0.00;99.90
52919;DHT22;38793;52.690;6.812;2023-03-01T00:05:04;-0.10;99.90
52919;DHT22;38793;52.690;6.812;2023-03-01T00:07:30;-0.10;99.90
52919;DHT22;38793;52.690;6.812;2023-03-01T00:09:56;-0.20;99.90
52919;DHT22;38793;52.690;6.812;2023-03-01T00:12:21;-0.10;99.90
52919;DHT22;38793;52.690;6.812;2023-03-01T00:14:47;-0.20;99.90
52919;DHT22;38793;52.690;6.812;2023-03-01T00:17:12;-0.20;99.90
52919;DHT22;38793;52.690;6.812;2023-03-01T00:19:38;-0.10;99.90
52919;DHT22;38793;52.690;6.812;2023-03-01T00:22:04;-0.10;99.90
52919;DHT22;38793;52.690;6.812;2023-03-01T00:24:29;-0.20;99.90
52919;DHT22;38793;52.690;6.812;2023-03-01T00:26:55;-0.20;99.90
52919;DHT22;38793;52.690;6.812;2023-03-01T00:29:23;-0.20;99.90
52919;DHT22;38793;52.690;6.812;2023-03-01T00:31:49;-0.20;99.90
52919;DHT22;38793;52.690;6.812;2023-03-01T00:34:14;-0.20;99.90
52919;DHT22;38793;52.690;6.812;2023-03-01T00:36:40;-0.20;99.90
52919;DHT22;38793;52.690;6.812;2023-03-01T00:39:10;-0.20;99.90
52919;DHT22;38793;52.690;6.812;2023-03-01T00:41:36;-0.30;99.90
52919;DHT22;38793;52.690;6.812;2023-03-01T00:44:01;-0.30;99.90
52919;DHT22;38793;52.690;6.812;2023-03-01T00:46:27;-0.20;99.90
52919;DHT22;38793;52.690;6.812;2023-03-01T00:48:55;-0.20;99.90
52919;DHT22;38793;52.690;6.812;2023-03-01T00:51:23;-0.20;99.90
52919;DHT22;38793;52.690;6.812;2023-03-01T00:53:51;-0.20;99.90
52919;DHT22;38793;52.690;6.812;2023-03-01T00:56:17;-0.20;99.90
52919;DHT22;38793;52.690;6.812;2023-03-01T00:58:43;-0.30;99.90
52919;DHT22;38793;52.690;6.812;2023-03-01T01:01:16;-0.30;99.90
52919;DHT22;38793;52.690;6.812;2023-03-01T01:04:04;-0.40;99.90
52919;DHT22;38793;52.690;6.812;2023-03-01T01:06:33;-0.40;99.90
52919;DHT22;38793;52.690;6.812;2023-03-01T01:09:00;-0.50;99.90
52919;DHT22;38793;52.690;6.812;2023-03-01T01:11:28;-0.60;99.90
52919;DHT22;38793;52.690;6.812;2023-03-01T01:13:54;-0.70;99.90
52919;DHT22;38793;52.690;6.812;2023-03-01T01:16:22;-0.80;99.90
52919;DHT22;38793;52.690;6.812;2023-03-01T01:18:48;-0.80;99.90
52919;DHT22;38793;52.690;6.812;2023-03-01T01:21:16;-0.90;99.90
52919;DHT22;38793;52.690;6.812;2023-03-01T01:23:43;-0.80;99.90
52919;DHT22;38793;52.690;6.812;2023-03-01T01:26:15;-0.90;99.90
52919;DHT22;38793;52.690;6.812;2023-03-01T01:28:41;-0.90;99.90
52919;DHT22;38793;52.690;6.812;2023-03-01T01:31:07;-0.80;99.90
52919;DHT22;38793;52.690;6.812;2023-03-01T01:33:34;-0.90;99.90
52919;DHT22;38793;52.690;6.812;2023-03-01T01:35:59;-0.90;99.90
52919;DHT22;38793;52.690;6.812;2023-03-01T01:38:25;-1.00;99.90
52919;DHT22;38793;52.690;6.812;2023-03-01T01:40:51;-1.00;99.90
52919;DHT22;38793;52.690;6.812;2023-03-01T01:43:31;-1.00;99.90
52919;DHT22;38793;52.690;6.812;2023-03-01T01:46:05;-1.10;99.90
52919;DHT22;38793;52.690;6.812;2023-03-01T01:48:41;-1.00;99.90
52919;DHT22;38793;52.690;6.812;2023-03-01T01:51:18;-1.10;99.90
52919;DHT22;38793;52.690;6.812;2023-03-01T01:53:47;-1.10;99.90
52919;DHT22;38793;52.690;6.812;2023-03-01T01:56:17;-1.10;99.90
52919;DHT22;38793;52.690;6.812;2023-03-01T01:58:44;-1.10;99.90
52919;DHT22;38793;52.690;6.812;2023-03-01T02:01:11;-1.20;99.90
52919;DHT22;38793;52.690;6.812;2023-03-01T02:03:39;-1.20;99.90
52919;DHT22;38793;52.690;6.812;2023-03-01T02:06:20;-1.20;99.90
52919;DHT22;38793;52.690;6.812;2023-03-01T02:08:48;-1.20;99.90
52919;DHT22;38793;52.690;6.812;2023-03-01T02:11:14;-1.20;99.90
52919;DHT22;38793;52.690;6.812;2023-03-01T02:13:41;-1.10;99.90
52919;DHT22;38793;52.690;6.812;2023-03-01T02:16:12;-1.20;99.90
52919;DHT22;38793;52.690;6.812;2023-03-01T02:18:40;-1.20;99.90
52919;DHT22;38793;52.690;6.812;2023-03-01T02:21:16;-1.20;99.90
52919;DHT22;38793;52.690;6.812;2023-03-01T02:23:42;-1.20;99.90
52919;DHT22;38793;52.690;6.812;2023-03-01T02:29:03;-1.20;99.90
52919;DHT22;38793;52.690;6.812;2023-03-01T02:31:31;-1.20;99.90
52919;DHT22;38793;52.690;6.812;2023-03-01T02:34:13;-1.10;99.90
52919;DHT22;38793;52.690;6.812;2023-03-01T02:36:50;-1.10;99.90
52919;DHT22;38793;52.690;6.812;2023-03-01T02:39:21;-1.10;99.90
52919;DHT22;38793;52.690;6.812;2023-03-01T02:41:54;-1.10;99.90
52919;DHT22;38793;52.690;6.812;2023-03-01T02:44:21;-1.10;99.90
52919;DHT22;38793;52.690;6.812;2023-03-01T02:46:50;-1.20;99.90
52919;DHT22;38793;52.690;6.812;2023-03-01T02:49:26;-1.10;99.90
52919;DHT22;38793;52.690;6.812;2023-03-01T02:52:35;-1.10;99.90
52919;DHT22;38793;52.690;6.812;2023-03-01T02:55:11;-1.10;99.90
52919;DHT22;38793;52.690;6.812;2023-03-01T02:57:42;-1.20;99.90
52919;DHT22;38793;52.690;6.812;2023-03-01T03:00:11;-1.30;99.90
52919;DHT22;38793;52.690;6.812;2023-03-01T03:02:45;-1.30;99.90
52919;DHT22;38793;52.690;6.812;2023-03-01T03:05:14;-1.30;99.90
52919;DHT22;38793;52.690;6.812;2023-03-01T03:07:42;-1.30;99.90
52919;DHT22;38793;52.690;6.812;2023-03-01T03:10:12;-1.30;99.90
52919;DHT22;38793;52.690;6.812;2023-03-01T03:12:38;-1.30;99.90
52919;DHT22;38793;52.690;6.812;2023-03-01T03:15:05;-1.30;99.90
52919;DHT22;38793;52.690;6.812;2023-03-01T03:17:35;-1.30;99.90
52919;DHT22;38793;52.690;6.812;2023-03-01T03:20:02;-1.30;99.90
52919;DHT22;38793;52.690;6.812;2023-03-01T03:22:29;-1.30;99.90
52919;DHT22;38793;52.690;6.812;2023-03-01T03:24:54;-1.30;99.90
52919;DHT22;38793;52.690;6.812;2023-03-01T03:27:20;-1.40;99.90
52919;DHT22;38793;52.690;6.812;2023-03-01T03:29:46;-1.40;99.90
52919;DHT22;38793;52.690;6.812;2023-03-01T03:32:11;-1.50;99.90
52919;DHT22;38793;52.690;6.812;2023-03-01T03:34:37;-1.60;99.90
52919;DHT22;38793;52.690;6.812;2023-03-01T03:37:02;-1.60;99.90
52919;DHT22;38793;52.690;6.812;2023-03-01T03:39:28;-1.60;99.90
52919;DHT22;38793;52.690;6.812;2023-03-01T03:41:54;-1.60;99.90
52919;DHT22;38793;52.690;6.812;2023-03-01T03:44:21;-1.60;99.90
52919;DHT22;38793;52.690;6.812;2023-03-01T03:46:47;-1.60;99.90
52919;DHT22;38793;52.690;6.812;2023-03-01T03:49:12;-1.60;99.90
52919;DHT22;38793;52.690;6.812;2023-03-01T03:51:38;-1.70;99.90
52919;DHT22;38793;52.690;6.812;2023-03-01T03:54:03;-1.80;99.90
52919;DHT22;38793;52.690;6.812;2023-03-01T03:56:29;-1.80;99.90
52919;DHT22;38793;52.690;6.812;2023-03-01T03:58:55;-1.90;99.90
52919;DHT22;38793;52.690;6.812;2023-03-01T04:01:20;-1.90;99.90
52919;DHT22;38793;52.690;6.812;2023-03-01T04:03:46;-2.00;99.90
52919;DHT22;38793;52.690;6.812;2023-03-01T04:06:15;-2.00;99.90
52919;DHT22;38793;52.690;6.812;2023-03-01T04:08:41;-2.00;99.90
52919;DHT22;38793;52.690;6.812;2023-03-01T04:11:07;-1.90;99.90
52919;DHT22;38793;52.690;6.812;2023-03-01T04:13:54;-1.90;99.90
52919;DHT22;38793;52.690;6.812;2023-03-01T04:16:20;-1.90;99.90
52919;DHT22;38793;52.690;6.812;2023-03-01T04:18:46;-1.90;99.90
52919;DHT22;38793;52.690;6.812;2023-03-01T04:21:12;-1.80;99.90
52919;DHT22;38793;52.690;6.812;2023-03-01T04:23:38;-1.80;99.90
52919;DHT22;38793;52.690;6.812;2023-03-01T04:26:04;-1.90;99.90
52919;DHT22;38793;52.690;6.812;2023-03-01T04:28:33;-1.90;99.90
52919;DHT22;38793;52.690;6.812;2023-03-01T04:31:10;-1.90;99.90
52919;DHT22;38793;52.690;6.812;2023-03-01T04:33:43;-1.90;99.90
52919;DHT22;38793;52.690;6.812;2023-03-01T04:36:10;-1.90;99.90
52919;DHT22;38793;52.690;6.812;2023-03-01T04:38:39;-1.90;99.90
52919;DHT22;38793;52.690;6.812;2023-03-01T04:41:09;-1.90;99.90
52919;DHT22;38793;52.690;6.812;2023-03-01T04:43:36;-1.90;99.90
52919;DHT22;38793;52.690;6.812;2023-03-01T04:46:07;-1.90;99.90
52919;DHT22;38793;52.690;6.812;2023-03-01T04:48:36;-1.90;99.90
52919;DHT22;38793;52.690;6.812;2023-03-01T04:51:03;-2.00;99.90
52919;DHT22;38793;52.690;6.812;2023-03-01T04:53:29;-2.10;99.90
52919;DHT22;38793;52.690;6.812;2023-03-01T04:55:55;-2.00;99.90
52919;DHT22;38793;52.690;6.812;2023-03-01T04:58:26;-2.10;99.90
52919;DHT22;38793;52.690;6.812;2023-03-01T05:00:52;-2.10;99.90
52919;DHT22;38793;52.690;6.812;2023-03-01T05:03:19;-2.10;99.90
52919;DHT22;38793;52.690;6.812;2023-03-01T05:05:46;-2.20;99.90
52919;DHT22;38793;52.690;6.812;2023-03-01T05:08:13;-2.20;99.90
52919;DHT22;38793;52.690;6.812;2023-03-01T05:10:50;-2.20;99.90
52919;DHT22;38793;52.690;6.812;2023-03-01T05:13:17;-2.30;99.90
52919;DHT22;38793;52.690;6.812;2023-03-01T05:15:57;-2.30;99.90
52919;DHT22;38793;52.690;6.812;2023-03-01T05:18:24;-2.30;99.90
52919;DHT22;38793;52.690;6.812;2023-03-01T05:20:54;-2.30;99.90
52919;DHT22;38793;52.690;6.812;2023-03-01T05:23:22;-2.30;99.90
52919;DHT22;38793;52.690;6.812;2023-03-01T05:25:47;-2.30;99.90
52919;DHT22;38793;52.690;6.812;2023-03-01T05:28:14;-2.30;99.90
52919;DHT22;38793;52.690;6.812;2023-03-01T05:30:40;-2.30;99.90
52919;DHT22;38793;52.690;6.812;2023-03-01T05:33:06;-2.30;99.90
52919;DHT22;38793;52.690;6.812;2023-03-01T05:35:36;-2.40;99.90
52919;DHT22;38793;52.690;6.812;2023-03-01T05:38:02;-2.40;99.90
52919;DHT22;38793;52.690;6.812;2023-03-01T05:40:28;-2.40;99.90
52919;DHT22;38793;52.690;6.812;2023-03-01T05:42:56;-2.40;99.90
52919;DHT22;38793;52.690;6.812;2023-03-01T05:45:23;-2.50;99.90
52919;DHT22;38793;52.690;6.812;2023-03-01T05:47:50;-2.50;99.90
52919;DHT22;38793;52.690;6.812;2023-03-01T05:50:19;-2.40;99.90
52919;DHT22;38793;52.690;6.812;2023-03-01T05:52:48;-2.50;99.90
52919;DHT22;38793;52.690;6.812;2023-03-01T05:55:19;-2.50;99.90
52919;DHT22;38793;52.690;6.812;2023-03-01T05:57:45;-2.60;99.90
52919;DHT22;38793;52.690;6.812;2023-03-01T06:00:12;-2.60;99.90
52919;DHT22;38793;52.690;6.812;2023-03-01T06:02:38;-2.70;99.90
52919;DHT22;38793;52.690;6.812;2023-03-01T06:05:06;-2.60;99.90
52919;DHT22;38793;52.690;6.812;2023-03-01T06:07:32;-2.60;99.90
52919;DHT22;38793;52.690;6.812;2023-03-01T06:09:58;-2.60;99.90
52919;DHT22;38793;52.690;6.812;2023-03-01T06:12:24;-2.60;99.90
52919;DHT22;38793;52.690;6.812;2023-03-01T06:14:49;-2.60;99.90
52919;DHT22;38793;52.690;6.812;2023-03-01T06:17:15;-2.60;99.90
52919;DHT22;38793;52.690;6.812;2023-03-01T06:19:40;-2.60;99.90
52919;DHT22;38793;52.690;6.812;2023-03-01T06:22:06;-2.60;99.90
52919;DHT22;38793;52.690;6.812;2023-03-01T06:24:32;-2.60;99.90
52919;DHT22;38793;52.690;6.812;2023-03-01T06:26:58;-2.60;99.90
52919;DHT22;38793;52.690;6.812;2023-03-01T06:29:24;-2.60;99.90
52919;DHT22;38793;52.690;6.812;2023-03-01T06:31:49;-2.60;99.90
52919;DHT22;38793;52.690;6.812;2023-03-01T06:34:15;-2.50;99.90
52919;DHT22;38793;52.690;6.812;2023-03-01T06:36:41;-2.40;99.90
52919;DHT22;38793;52.690;6.812;2023-03-01T06:39:06;-2.30;99.90
52919;DHT22;38793;52.690;6.812;2023-03-01T06:41:32;-2.10;99.90
52919;DHT22;38793;52.690;6.812;2023-03-01T06:43:59;-1.80;99.90
52919;DHT22;38793;52.690;6.812;2023-03-01T06:46:24;-1.40;99.90
52919;DHT22;38793;52.690;6.812;2023-03-01T06:48:50;-1.20;99.90
52919;DHT22;38793;52.690;6.812;2023-03-01T06:51:15;-0.90;99.90
52919;DHT22;38793;52.690;6.812;2023-03-01T06:53:41;-0.60;99.90
52919;DHT22;38793;52.690;6.812;2023-03-01T06:56:07;-0.30;99.90
52919;DHT22;38793;52.690;6.812;2023-03-01T06:58:32;0.00;99.90
52919;DHT22;38793;52.690;6.812;2023-03-01T07:00:59;0.30;99.90
52919;DHT22;38793;52.690;6.812;2023-03-01T07:03:24;0.60;99.90
52919;DHT22;38793;52.690;6.812;2023-03-01T07:05:50;1.10;99.90
52919;DHT22;38793;52.690;6.812;2023-03-01T07:08:19;1.60;99.90
52919;DHT22;38793;52.690;6.812;2023-03-01T07:10:45;2.10;99.90
52919;DHT22;38793;52.690;6.812;2023-03-01T07:13:10;2.40;99.90
52919;DHT22;38793;52.690;6.812;2023-03-01T07:15:36;2.60;99.90
52919;DHT22;38793;52.690;6.812;2023-03-01T07:18:02;2.70;99.90
52919;DHT22;38793;52.690;6.812;2023-03-01T07:20:27;2.70;99.90
52919;DHT22;38793;52.690;6.812;2023-03-01T07:22:54;2.50;99.90
52919;DHT22;38793;52.690;6.812;2023-03-01T07:25:20;2.60;99.90
52919;DHT22;38793;52.690;6.812;2023-03-01T07:27:53;3.00;99.90
52919;DHT22;38793;52.690;6.812;2023-03-01T07:30:20;3.30;99.90
52919;DHT22;38793;52.690;6.812;2023-03-01T07:32:45;3.50;99.90
52919;DHT22;38793;52.690;6.812;2023-03-01T07:35:11;3.40;99.90
52919;DHT22;38793;52.690;6.812;2023-03-01T07:37:37;3.30;99.90
52919;DHT22;38793;52.690;6.812;2023-03-01T07:40:03;3.10;99.90
52919;DHT22;38793;52.690;6.812;2023-03-01T07:42:29;2.90;99.90
52919;DHT22;38793;52.690;6.812;2023-03-01T07:44:55;2.70;99.90
52919;DHT22;38793;52.690;6.812;2023-03-01T07:47:20;2.60;99.90
52919;DHT22;38793;52.690;6.812;2023-03-01T07:49:46;2.50;99.90
52919;DHT22;38793;52.690;6.812;2023-03-01T07:52:12;2.40;99.90
52919;DHT22;38793;52.690;6.812;2023-03-01T07:54:38;2.40;99.90
52919;DHT22;38793;52.690;6.812;2023-03-01T07:57:03;2.40;99.90
52919;DHT22;38793;52.690;6.812;2023-03-01T07:59:29;2.40;99.90
52919;DHT22;38793;52.690;6.812;2023-03-01T08:01:56;2.50;99.90
52919;DHT22;38793;52.690;6.812;2023-03-01T08:04:22;2.60;99.90
52919;DHT22;38793;52.690;6.812;2023-03-01T08:06:48;2.70;99.90
52919;DHT22;38793;52.690;6.812;2023-03-01T08:09:14;2.80;99.90
52919;DHT22;38793;52.690;6.812;2023-03-01T08:11:39;2.90;99.90
52919;DHT22;38793;52.690;6.812;2023-03-01T08:14:06;3.00;99.90
52919;DHT22;38793;52.690;6.812;2023-03-01T08:16:31;3.10;99.90
52919;DHT22;38793;52.690;6.812;2023-03-01T08:19:06;3.10;99.90
52919;DHT22;38793;52.690;6.812;2023-03-01T08:21:33;3.20;99.90
52919;DHT22;38793;52.690;6.812;2023-03-01T08:24:01;3.20;99.90
52919;DHT22;38793;52.690;6.812;2023-03-01T08:26:26;3.30;99.90
52919;DHT22;38793;52.690;6.812;2023-03-01T08:28:52;3.40;99.90
52919;DHT22;38793;52.690;6.812;2023-03-01T08:31:23;3.50;99.90
52919;DHT22;38793;52.690;6.812;2023-03-01T08:33:53;3.60;99.90
52919;DHT22;38793;52.690;6.812;2023-03-01T08:36:29;3.70;99.90
52919;DHT22;38793;52.690;6.812;2023-03-01T08:38:55;3.90;99.90
52919;DHT22;38793;52.690;6.812;2023-03-01T08:41:21;4.00;99.90
52919;DHT22;38793;52.690;6.812;2023-03-01T08:43:47;4.10;99.90
52919;DHT22;38793;52.690;6.812;2023-03-01T08:46:13;4.30;99.90
52919;DHT22;38793;52.690;6.812;2023-03-01T08:48:39;4.40;99.90
52919;DHT22;38793;52.690;6.812;2023-03-01T08:53:34;4.60;99.90
52919;DHT22;38793;52.690;6.812;2023-03-01T08:56:01;4.70;99.90
52919;DHT22;38793;52.690;6.812;2023-03-01T08:58:28;4.80;99.90
52919;DHT22;38793;52.690;6.812;2023-03-01T09:00:54;4.90;99.90
52919;DHT22;38793;52.690;6.812;2023-03-01T09:03:22;4.90;99.90
52919;DHT22;38793;52.690;6.812;2023-03-01T09:05:48;4.90;99.90
52919;DHT22;38793;52.690;6.812;2023-03-01T09:08:16;5.00;99.90
52919;DHT22;38793;52.690;6.812;2023-03-01T09:10:42;5.10;99.90
52919;DHT22;38793;52.690;6.812;2023-03-01T09:13:08;5.20;99.90
52919;DHT22;38793;52.690;6.812;2023-03-01T09:15:33;5.30;99.90
52919;DHT22;38793;52.690;6.812;2023-03-01T09:18:00;5.30;99.90
52919;DHT22;38793;52.690;6.812;2023-03-01T09:20:25;5.40;99.90
52919;DHT22;38793;52.690;6.812;2023-03-01T09:22:51;5.50;99.90
52919;DHT22;38793;52.690;6.812;2023-03-01T09:25:16;5.50;99.90
52919;DHT22;38793;52.690;6.812;2023-03-01T09:27:42;5.60;99.90
52919;DHT22;38793;52.690;6.812;2023-03-01T09:30:08;5.70;99.90
52919;DHT22;38793;52.690;6.812;2023-03-01T09:32:33;5.80;99.90
52919;DHT22;38793;52.690;6.812;2023-03-01T09:34:59;5.80;99.90
52919;DHT22;38793;52.690;6.812;2023-03-01T09:37:34;5.90;99.90
52919;DHT22;38793;52.690;6.812;2023-03-01T09:40:02;6.00;99.90
52919;DHT22;38793;52.690;6.812;2023-03-01T09:42:34;6.00;99.90
52919;DHT22;38793;52.690;6.812;2023-03-01T09:45:12;6.00;99.90
52919;DHT22;38793;52.690;6.812;2023-03-01T09:47:40;6.10;99.90
52919;DHT22;38793;52.690;6.812;2023-03-01T09:52:34;6.20;99.90
52919;DHT22;38793;52.690;6.812;2023-03-01T09:55:11;6.20;99.90
52919;DHT22;38793;52.690;6.812;2023-03-01T09:57:48;6.30;99.80
52919;DHT22;38793;52.690;6.812;2023-03-01T10:00:17;6.30;98.80
52919;DHT22;38793;52.690;6.812;2023-03-01T10:02:49;6.30;98.00
52919;DHT22;38793;52.690;6.812;2023-03-01T10:10:38;6.40;97.70
52919;DHT22;38793;52.690;6.812;2023-03-01T10:13:18;6.50;97.80
52919;DHT22;38793;52.690;6.812;2023-03-01T10:15:50;6.60;97.40
52919;DHT22;38793;52.690;6.812;2023-03-01T10:18:22;6.60;97.50
52919;DHT22;38793;52.690;6.812;2023-03-01T10:23:30;6.70;97.80
52919;DHT22;38793;52.690;6.812;2023-03-01T10:29:09;6.90;97.10
52919;DHT22;38793;52.690;6.812;2023-03-01T10:31:48;7.00;96.60
52919;DHT22;38793;52.690;6.812;2023-03-01T10:34:19;7.00;96.70
52919;DHT22;38793;52.690;6.812;2023-03-01T10:36:50;6.90;96.50
52919;DHT22;38793;52.690;6.812;2023-03-01T10:39:24;7.00;96.00
52919;DHT22;38793;52.690;6.812;2023-03-01T10:41:59;7.00;95.60
52919;DHT22;38793;52.690;6.812;2023-03-01T10:47:02;7.10;96.00
52919;DHT22;38793;52.690;6.812;2023-03-01T10:49:27;7.20;95.30
52919;DHT22;38793;52.690;6.812;2023-03-01T10:51:54;7.40;95.10
52919;DHT22;38793;52.690;6.812;2023-03-01T10:54:28;7.50;94.70
52919;DHT22;38793;52.690;6.812;2023-03-01T10:56:57;7.70;94.40
52919;DHT22;38793;52.690;6.812;2023-03-01T10:59:30;7.60;94.60
52919;DHT22;38793;52.690;6.812;2023-03-01T11:02:21;7.50;93.30
52919;DHT22;38793;52.690;6.812;2023-03-01T11:04:58;7.60;92.90
52919;DHT22;38793;52.690;6.812;2023-03-01T11:07:24;7.60;94.20
52919;DHT22;38793;52.690;6.812;2023-03-01T11:09:50;7.70;93.60
52919;DHT22;38793;52.690;6.812;2023-03-01T11:12:16;7.80;93.60
52919;DHT22;38793;52.690;6.812;2023-03-01T11:14:49;7.90;93.80
52919;DHT22;38793;52.690;6.812;2023-03-01T11:17:36;8.00;94.00
52919;DHT22;38793;52.690;6.812;2023-03-01T11:22:47;8.00;93.90
52919;DHT22;38793;52.690;6.812;2023-03-01T11:25:14;8.10;93.80
52919;DHT22;38793;52.690;6.812;2023-03-01T11:27:44;8.20;93.60
52919;DHT22;38793;52.690;6.812;2023-03-01T11:30:21;8.20;93.50
52919;DHT22;38793;52.690;6.812;2023-03-01T11:35:27;8.20;93.50
52919;DHT22;38793;52.690;6.812;2023-03-01T11:38:04;8.30;93.00
52919;DHT22;38793;52.690;6.812;2023-03-01T11:40:39;8.30;93.90
52919;DHT22;38793;52.690;6.812;2023-03-01T12:07:51;8.60;94.10
52919;DHT22;38793;52.690;6.812;2023-03-01T12:10:32;8.60;93.50
52919;DHT22;38793;52.690;6.812;2023-03-01T12:26:34;9.20;93.80
52919;DHT22;38793;52.690;6.812;2023-03-01T12:29:02;9.50;92.90
52919;DHT22;38793;52.690;6.812;2023-03-01T12:42:32;10.00;92.00
52919;DHT22;38793;52.690;6.812;2023-03-01T12:50:51;10.10;91.60
52919;DHT22;38793;52.690;6.812;2023-03-01T12:53:29;10.10;90.60
52919;DHT22;38793;52.690;6.812;2023-03-01T12:56:08;10.10;90.60
52919;DHT22;38793;52.690;6.812;2023-03-01T13:01:54;10.00;90.90
52919;DHT22;38793;52.690;6.812;2023-03-01T13:04:40;10.10;90.30
52919;DHT22;38793;52.690;6.812;2023-03-01T13:07:19;10.10;89.90
52919;DHT22;38793;52.690;6.812;2023-03-01T13:17:48;10.40;88.70
52919;DHT22;38793;52.690;6.812;2023-03-01T13:20:17;10.40;89.50
52919;DHT22;38793;52.690;6.812;2023-03-01T13:22:45;10.50;90.20
52919;DHT22;38793;52.690;6.812;2023-03-01T13:25:14;10.60;89.30
52919;DHT22;38793;52.690;6.812;2023-03-01T13:27:41;10.60;89.10
52919;DHT22;38793;52.690;6.812;2023-03-01T13:36:00;10.60;87.50
52919;DHT22;38793;52.690;6.812;2023-03-01T13:38:54;10.50;88.10
52919;DHT22;38793;52.690;6.812;2023-03-01T13:49:41;10.40;87.40
52919;DHT22;38793;52.690;6.812;2023-03-01T13:52:41;10.40;86.60
52919;DHT22;38793;52.690;6.812;2023-03-01T13:55:56;10.50;86.80
52919;DHT22;38793;52.690;6.812;2023-03-01T13:57:59;10.60;86.20
52919;DHT22;38793;52.690;6.812;2023-03-01T14:00:38;10.60;86.30
52919;DHT22;38793;52.690;6.812;2023-03-01T14:03:16;10.60;83.70
52919;DHT22;38793;52.690;6.812;2023-03-01T14:05:57;10.60;81.70
52919;DHT22;38793;52.690;6.812;2023-03-01T14:08:25;10.60;81.70
52919;DHT22;38793;52.690;6.812;2023-03-01T14:11:19;10.50;80.30
52919;DHT22;38793;52.690;6.812;2023-03-01T14:13:54;10.50;80.50
52919;DHT22;38793;52.690;6.812;2023-03-01T14:19:35;10.40;82.20
52919;DHT22;38793;52.690;6.812;2023-03-01T14:24:39;10.40;83.50
52919;DHT22;38793;52.690;6.812;2023-03-01T14:27:12;10.40;82.50
52919;DHT22;38793;52.690;6.812;2023-03-01T14:29:39;10.40;81.70
52919;DHT22;38793;52.690;6.812;2023-03-01T14:32:17;10.30;82.10
52919;DHT22;38793;52.690;6.812;2023-03-01T14:34:46;10.30;81.50
52919;DHT22;38793;52.690;6.812;2023-03-01T14:37:21;10.30;81.30
52919;DHT22;38793;52.690;6.812;2023-03-01T14:39:48;10.20;81.50
52919;DHT22;38793;52.690;6.812;2023-03-01T14:42:15;10.30;83.20
52919;DHT22;38793;52.690;6.812;2023-03-01T14:44:43;10.20;81.80
52919;DHT22;38793;52.690;6.812;2023-03-01T14:47:15;10.20;82.00
52919;DHT22;38793;52.690;6.812;2023-03-01T14:49:42;10.20;83.00
52919;DHT22;38793;52.690;6.812;2023-03-01T14:52:18;10.20;83.00
52919;DHT22;38793;52.690;6.812;2023-03-01T14:54:48;10.30;83.30
52919;DHT22;38793;52.690;6.812;2023-03-01T14:57:17;10.40;84.10
52919;DHT22;38793;52.690;6.812;2023-03-01T14:59:43;10.40;84.60
52919;DHT22;38793;52.690;6.812;2023-03-01T15:02:17;10.50;85.20
52919;DHT22;38793;52.690;6.812;2023-03-01T15:04:50;10.50;85.10
52919;DHT22;38793;52.690;6.812;2023-03-01T15:07:17;10.50;84.50
52919;DHT22;38793;52.690;6.812;2023-03-01T15:09:43;10.50;85.20
52919;DHT22;38793;52.690;6.812;2023-03-01T15:12:35;10.50;84.30
52919;DHT22;38793;52.690;6.812;2023-03-01T15:17:53;10.40;84.70
52919;DHT22;38793;52.690;6.812;2023-03-01T15:20:22;10.40;85.10
52919;DHT22;38793;52.690;6.812;2023-03-01T15:22:51;10.40;85.80
52919;DHT22;38793;52.690;6.812;2023-03-01T15:25:27;10.40;85.60
52919;DHT22;38793;52.690;6.812;2023-03-01T15:27:54;10.50;84.70
52919;DHT22;38793;52.690;6.812;2023-03-01T15:30:33;10.70;85.50
52919;DHT22;38793;52.690;6.812;2023-03-01T15:35:51;11.20;84.30
52919;DHT22;38793;52.690;6.812;2023-03-01T15:38:50;11.50;84.60
52919;DHT22;38793;52.690;6.812;2023-03-01T15:43:50;11.50;83.10
52919;DHT22;38793;52.690;6.812;2023-03-01T15:46:33;11.50;83.00
52919;DHT22;38793;52.690;6.812;2023-03-01T15:49:04;11.90;82.80
52919;DHT22;38793;52.690;6.812;2023-03-01T15:51:35;12.40;82.10
52919;DHT22;38793;52.690;6.812;2023-03-01T15:54:10;12.70;81.00
52919;DHT22;38793;52.690;6.812;2023-03-01T15:56:38;12.90;80.00
52919;DHT22;38793;52.690;6.812;2023-03-01T15:59:03;13.30;78.40
52919;DHT22;38793;52.690;6.812;2023-03-01T16:01:30;13.80;79.10
52919;DHT22;38793;52.690;6.812;2023-03-01T16:03:56;14.10;76.90
52919;DHT22;38793;52.690;6.812;2023-03-01T16:06:23;14.20;77.00
52919;DHT22;38793;52.690;6.812;2023-03-01T16:08:49;14.70;76.90
52919;DHT22;38793;52.690;6.812;2023-03-01T16:11:17;15.20;74.60
52919;DHT22;38793;52.690;6.812;2023-03-01T16:13:43;15.50;74.90
52919;DHT22;38793;52.690;6.812;2023-03-01T16:16:11;15.60;73.80
52919;DHT22;38793;52.690;6.812;2023-03-01T16:18:45;15.70;71.90
52919;DHT22;38793;52.690;6.812;2023-03-01T16:21:19;15.50;70.60
52919;DHT22;38793;52.690;6.812;2023-03-01T16:23:45;15.30;69.90
52919;DHT22;38793;52.690;6.812;2023-03-01T16:26:11;14.90;69.40
52919;DHT22;38793;52.690;6.812;2023-03-01T16:28:39;14.50;69.80
52919;DHT22;38793;52.690;6.812;2023-03-01T16:31:05;14.30;69.80
52919;DHT22;38793;52.690;6.812;2023-03-01T16:33:31;14.20;70.30
52919;DHT22;38793;52.690;6.812;2023-03-01T16:35:56;13.90;70.30
52919;DHT22;38793;52.690;6.812;2023-03-01T16:38:23;13.30;70.00
52919;DHT22;38793;52.690;6.812;2023-03-01T16:40:50;12.60;69.90
52919;DHT22;38793;52.690;6.812;2023-03-01T16:43:16;11.90;71.40
52919;DHT22;38793;52.690;6.812;2023-03-01T16:45:42;11.30;72.50
52919;DHT22;38793;52.690;6.812;2023-03-01T16:48:10;10.80;73.70
52919;DHT22;38793;52.690;6.812;2023-03-01T16:50:36;10.40;74.70
52919;DHT22;38793;52.690;6.812;2023-03-01T16:53:02;10.00;75.70
52919;DHT22;38793;52.690;6.812;2023-03-01T16:55:28;9.70;76.60
52919;DHT22;38793;52.690;6.812;2023-03-01T16:57:54;9.40;77.50
52919;DHT22;38793;52.690;6.812;2023-03-01T17:00:19;9.10;78.30
52919;DHT22;38793;52.690;6.812;2023-03-01T17:02:45;8.90;79.30
52919;DHT22;38793;52.690;6.812;2023-03-01T17:05:11;8.70;80.50
52919;DHT22;38793;52.690;6.812;2023-03-01T17:07:38;8.50;81.30
52919;DHT22;38793;52.690;6.812;2023-03-01T17:10:07;8.30;82.50
52919;DHT22;38793;52.690;6.812;2023-03-01T17:12:33;8.20;83.50
52919;DHT22;38793;52.690;6.812;2023-03-01T17:14:59;8.10;84.40
52919;DHT22;38793;52.690;6.812;2023-03-01T17:17:25;7.90;85.30
52919;DHT22;38793;52.690;6.812;2023-03-01T17:19:51;7.80;86.00
52919;DHT22;38793;52.690;6.812;2023-03-01T17:22:16;7.70;86.80
52919;DHT22;38793;52.690;6.812;2023-03-01T17:24:43;7.60;87.90
52919;DHT22;38793;52.690;6.812;2023-03-01T17:27:08;7.40;88.80
52919;DHT22;38793;52.690;6.812;2023-03-01T17:29:36;7.30;89.80
52919;DHT22;38793;52.690;6.812;2023-03-01T17:32:03;7.20;90.30
52919;DHT22;38793;52.690;6.812;2023-03-01T17:34:29;7.10;90.70
52919;DHT22;38793;52.690;6.812;2023-03-01T17:36:56;7.00;91.40
52919;DHT22;38793;52.690;6.812;2023-03-01T17:39:21;6.90;91.70
52919;DHT22;38793;52.690;6.812;2023-03-01T17:41:51;6.90;92.30
52919;DHT22;38793;52.690;6.812;2023-03-01T17:44:17;6.80;92.90
52919;DHT22;38793;52.690;6.812;2023-03-01T17:46:43;6.70;93.10